createdAt,value
2022-12-18T00:01:21.417Z,101777.41
2022-12-18T00:03:48.787Z,101776.59
2022-12-18T00:06:16.702Z,101783.59
2022-12-18T00:08:44.432Z,101792.41
2022-12-18T00:11:23.181Z,101801.22
2022-12-18T00:13:50.689Z,101806.50
2022-12-18T00:16:23.081Z,101811.78
2022-12-18T00:18:51.249Z,101811.78
2022-12-18T00:21:18.702Z,101818.81
2022-12-18T00:23:46.752Z,101828.44
2022-12-18T00:26:21.677Z,101829.28
2022-12-18T00:28:49.012Z,101832.78
2022-12-18T00:31:18.401Z,101834.53
2022-12-18T00:33:45.379Z,101838.94
2022-12-18T00:36:15.773Z,101835.44
2022-12-18T00:38:42.528Z,101842.50
2022-12-18T00:41:10.680Z,101852.16
2022-12-18T00:43:38.961Z,101852.16
2022-12-18T00:46:06.463Z,101848.66
2022-12-18T00:48:33.180Z,101860.06
2022-12-18T00:50:59.684Z,101856.56
2022-12-18T00:53:26.236Z,101861.78
2022-12-18T00:55:52.775Z,101865.28
2022-12-18T00:58:19.717Z,101862.66
2022-12-18T01:00:46.329Z,101874.91
2022-12-18T01:03:15.743Z,101876.69
2022-12-18T01:05:43.029Z,101880.19
2022-12-18T01:08:10.224Z,101873.19
2022-12-18T01:10:36.806Z,101876.72
2022-12-18T01:13:03.384Z,101888.09
2022-12-18T01:15:29.879Z,101888.09
2022-12-18T01:17:56.406Z,101894.22
2022-12-18T01:20:23.042Z,101890.72
2022-12-18T01:22:49.564Z,101895.09
2022-12-18T01:25:16.213Z,101900.34
2022-12-18T01:27:42.720Z,101897.72
2022-12-18T01:30:09.696Z,101905.63
2022-12-18T01:32:36.237Z,101910.03
2022-12-18T01:35:03.198Z,101911.75
2022-12-18T01:37:29.980Z,101907.41
2022-12-18T01:39:56.577Z,101913.50
2022-12-18T01:42:23.149Z,101913.53
2022-12-18T01:45:12.775Z,101920.53
2022-12-18T01:47:41.227Z,101924.03
2022-12-18T01:50:18.461Z,101923.16
2022-12-18T01:52:48.693Z,101931.03
2022-12-18T01:55:19.261Z,101927.53
2022-12-18T01:57:47.308Z,101931.03
2022-12-18T02:00:18.505Z,101932.78
2022-12-18T02:02:47.220Z,101931.91
2022-12-18T02:05:18.762Z,101939.78
2022-12-18T02:08:07.649Z,101947.66
2022-12-18T02:10:48.105Z,101946.78
2022-12-18T02:13:25.099Z,101955.50
2022-12-18T02:16:00.616Z,101953.75
2022-12-18T02:18:41.957Z,101953.78
2022-12-18T02:21:35.255Z,101959.03
2022-12-18T02:24:18.513Z,101957.25
2022-12-18T02:26:54.323Z,101954.66
2022-12-18T02:29:29.836Z,101959.91
2022-12-18T02:32:00.252Z,101971.28
2022-12-18T02:34:31.351Z,101961.66
2022-12-18T02:37:01.052Z,101971.28
2022-12-18T02:39:30.320Z,101975.69
2022-12-18T02:41:58.526Z,101981.78
2022-12-18T02:44:25.061Z,101978.28
2022-12-18T02:46:53.527Z,101980.91
2022-12-18T02:49:40.769Z,101974.78
2022-12-18T02:52:13.197Z,101977.34
2022-12-18T02:55:01.401Z,101982.59
2022-12-18T02:57:49.231Z,101991.31
2022-12-18T03:00:22.586Z,101998.28
2022-12-18T03:03:04.410Z,102005.25
2022-12-18T03:05:54.530Z,102006.13
2022-12-18T03:08:43.518Z,102010.50
2022-12-18T03:11:12.250Z,102010.50
2022-12-18T03:13:51.865Z,102006.97
2022-12-18T03:16:24.211Z,102009.59
2022-12-18T03:18:56.927Z,102013.97
2022-12-18T03:21:29.945Z,102020.09
2022-12-18T03:23:57.798Z,102018.31
2022-12-18T03:26:28.078Z,102026.19
2022-12-18T03:29:00.380Z,102034.09
2022-12-18T03:31:30.588Z,102029.69
2022-12-18T03:34:02.009Z,102033.19
2022-12-18T03:36:29.019Z,102042.84
2022-12-18T03:38:55.549Z,102048.94
2022-12-18T03:41:46.112Z,102051.50
2022-12-18T03:44:18.156Z,102061.97
2022-12-18T03:47:13.793Z,102063.72
2022-12-18T03:49:53.854Z,102061.06
2022-12-18T03:52:40.681Z,102057.59
2022-12-18T03:55:10.203Z,102055.78
2022-12-18T03:57:38.306Z,102061.91
2022-12-18T04:00:12.976Z,102054.88
2022-12-18T04:02:41.252Z,102056.59
2022-12-18T04:05:09.449Z,102073.22
2022-12-18T04:07:37.053Z,102073.25
2022-12-18T04:10:05.469Z,102073.25
2022-12-18T04:12:32.028Z,102068.88
2022-12-18T04:14:58.660Z,102068.88
2022-12-18T04:17:25.505Z,102069.75
2022-12-18T04:19:52.041Z,102075.00
2022-12-18T04:22:21.149Z,102072.38
2022-12-18T04:24:47.689Z,102078.47
2022-12-18T04:27:14.244Z,102074.09
2022-12-18T04:29:40.878Z,102077.59
2022-12-18T04:32:08.204Z,102081.09
2022-12-18T04:34:34.704Z,102081.13
2022-12-18T04:37:01.257Z,102082.00
2022-12-18T04:39:27.902Z,102087.25
2022-12-18T04:41:54.460Z,102094.28
2022-12-18T04:44:21.438Z,102094.25
2022-12-18T04:46:48.019Z,102107.38
2022-12-18T04:49:14.658Z,102107.41
2022-12-18T04:51:41.177Z,102118.88
2022-12-18T04:54:07.649Z,102110.13
2022-12-18T04:56:34.208Z,102115.38
2022-12-18T04:59:00.723Z,102120.59
2022-12-18T05:01:34.109Z,102117.94
2022-12-18T05:04:01.924Z,102130.19
2022-12-18T05:06:28.464Z,102122.28
2022-12-18T05:08:54.946Z,102122.22
2022-12-18T05:11:21.681Z,102133.59
2022-12-18T05:13:48.240Z,102134.44
2022-12-18T05:16:15.603Z,102134.44
2022-12-18T05:18:42.658Z,102135.28
2022-12-18T05:21:09.518Z,102134.41
2022-12-18T05:23:37.215Z,102137.06
2022-12-18T05:26:06.202Z,102139.66
2022-12-18T05:28:34.447Z,102143.16
2022-12-18T05:31:03.274Z,102146.66
2022-12-18T05:33:32.792Z,102150.13
2022-12-18T05:36:04.575Z,102155.41
2022-12-18T05:38:32.247Z,102154.53
2022-12-18T05:40:59.269Z,102154.50
2022-12-18T05:43:27.264Z,102158.00
2022-12-18T05:45:54.373Z,102164.97
2022-12-18T05:48:21.585Z,102171.09
2022-12-18T05:50:49.494Z,102170.19
2022-12-18T05:53:18.915Z,102178.06
2022-12-18T05:55:45.499Z,102178.06
2022-12-18T05:58:13.701Z,102177.19
2022-12-18T06:00:43.386Z,102181.50
2022-12-18T06:03:12.269Z,102178.88
2022-12-18T06:05:44.316Z,102182.38
2022-12-18T06:08:11.902Z,102185.03
2022-12-18T06:10:38.945Z,102185.03
2022-12-18T06:13:06.768Z,102186.78
2022-12-18T06:15:34.032Z,102189.38
2022-12-18T06:18:01.689Z,102193.78
2022-12-18T06:20:33.231Z,102187.66
2022-12-18T06:23:00.336Z,102197.25
2022-12-18T06:25:27.147Z,102203.34
2022-12-18T06:27:53.698Z,102198.97
2022-12-18T06:30:20.524Z,102212.91
2022-12-18T06:32:50.496Z,102222.50
2022-12-18T06:35:19.574Z,102224.28
2022-12-18T06:37:47.695Z,102228.69
2022-12-18T06:40:14.196Z,102224.38
2022-12-18T06:42:40.741Z,102237.47
2022-12-18T06:45:07.790Z,102239.19
2022-12-18T06:47:34.336Z,102240.94
2022-12-18T06:50:00.820Z,102239.19
2022-12-18T06:52:27.319Z,102240.97
2022-12-18T06:54:53.829Z,102243.56
2022-12-18T06:57:20.428Z,102251.47
2022-12-18T06:59:46.954Z,102267.19
2022-12-18T07:02:14.252Z,102267.19
2022-12-18T07:04:41.221Z,102267.22
2022-12-18T07:07:07.833Z,102270.69
2022-12-18T07:09:34.457Z,102282.09
2022-12-18T07:12:00.978Z,102278.66
2022-12-18T07:14:27.651Z,102281.31
2022-12-18T07:16:54.275Z,102287.47
2022-12-18T07:19:21.407Z,102290.13
2022-12-18T07:21:47.910Z,102291.03
2022-12-18T07:24:14.429Z,102296.34
2022-12-18T07:26:40.922Z,102301.63
2022-12-18T07:29:07.541Z,102296.47
2022-12-18T07:31:34.161Z,102316.63
2022-12-18T07:34:00.737Z,102312.34
2022-12-18T07:36:27.373Z,102319.38
2022-12-18T07:38:54.003Z,102312.47
2022-12-18T07:41:20.951Z,102323.00
2022-12-18T07:43:48.161Z,102330.97
2022-12-18T07:46:16.599Z,102331.03
2022-12-18T07:48:46.126Z,102326.78
2022-12-18T07:51:17.513Z,102326.00
2022-12-18T07:53:45.206Z,102333.94
2022-12-18T07:56:30.522Z,102340.19
2022-12-18T07:58:59.143Z,102338.56
2022-12-18T08:01:26.363Z,102349.16
2022-12-18T08:03:53.064Z,102351.84
2022-12-18T08:06:22.778Z,102353.66
2022-12-18T08:08:55.821Z,102355.44
2022-12-18T08:11:23.650Z,102351.97
2022-12-18T08:13:50.407Z,102358.13
2022-12-18T08:16:18.013Z,102359.81
2022-12-18T08:18:44.733Z,102365.88
2022-12-18T08:21:22.004Z,102352.53
2022-12-18T08:23:49.050Z,102354.06
2022-12-18T08:26:16.899Z,102353.78
2022-12-18T08:28:43.771Z,102362.22
2022-12-18T08:31:10.542Z,102347.69
2022-12-18T08:33:39.024Z,102356.97
2022-12-18T08:36:06.480Z,102360.19
2022-12-18T08:38:34.077Z,102369.50
2022-12-18T08:41:01.786Z,102365.25
2022-12-18T08:43:47.104Z,102362.66
2022-12-18T08:46:13.990Z,102354.34
2022-12-18T08:48:43.521Z,102362.78
2022-12-18T08:51:10.731Z,102351.78
2022-12-18T08:53:37.905Z,102355.00
2022-12-18T08:56:05.692Z,102359.09
2022-12-18T08:58:32.378Z,102355.09
2022-12-18T09:01:03.375Z,102363.53
2022-12-18T09:03:30.495Z,102364.44
2022-12-18T09:05:57.476Z,102367.91
2022-12-18T09:08:24.299Z,102375.47
2022-12-18T09:10:52.554Z,102369.19
2022-12-18T09:13:19.662Z,102372.06
2022-12-18T09:15:48.749Z,102368.91
2022-12-18T09:18:17.197Z,102379.72
2022-12-18T09:20:44.057Z,102367.28
2022-12-18T09:23:11.084Z,102363.41
2022-12-18T09:25:38.541Z,102356.34
2022-12-18T09:28:08.183Z,102357.69
2022-12-18T09:30:35.405Z,102352.88
2022-12-18T09:33:02.605Z,102361.97
2022-12-18T09:35:29.158Z,102359.19
2022-12-18T09:37:55.828Z,102357.41
2022-12-18T09:40:26.561Z,102357.91
2022-12-18T09:42:58.445Z,102362.72
2022-12-18T09:45:25.402Z,102362.94
2022-12-18T09:47:54.980Z,102360.56
2022-12-18T09:50:40.892Z,102353.19
2022-12-18T09:53:16.073Z,102354.53
2022-12-18T09:55:45.845Z,102363.28
2022-12-18T09:58:42.987Z,102355.81
2022-12-18T10:01:24.231Z,102359.22
2022-12-18T10:03:52.515Z,102359.09
2022-12-18T10:06:31.048Z,102356.06
2022-12-18T10:09:24.024Z,102353.81
2022-12-18T10:12:08.580Z,102347.56
2022-12-18T10:15:00.890Z,102344.44
2022-12-18T10:18:00.124Z,102348.69
2022-12-18T10:20:43.664Z,102346.47
2022-12-18T10:23:43.678Z,102351.19
2022-12-18T10:26:14.503Z,102345.88
2022-12-18T10:28:42.947Z,102344.00
2022-12-18T10:31:20.641Z,102341.38
2022-12-18T10:33:47.526Z,102350.13
2022-12-18T10:36:14.293Z,102345.03
2022-12-18T10:38:41.687Z,102346.97
2022-12-18T10:41:23.050Z,102349.44
2022-12-18T10:44:09.575Z,102341.78
2022-12-18T10:46:36.180Z,102349.16
2022-12-18T10:49:02.971Z,102338.31
2022-12-18T10:51:37.313Z,102339.19
2022-12-18T10:54:06.361Z,102341.91
2022-12-18T10:56:36.836Z,102339.78
2022-12-18T10:59:06.838Z,102337.25
2022-12-18T11:01:58.595Z,102331.44
2022-12-18T11:04:32.777Z,102336.47
2022-12-18T11:07:02.374Z,102324.88
2022-12-18T11:09:30.008Z,102332.78
2022-12-18T11:12:00.251Z,102325.03
2022-12-18T11:14:48.808Z,102324.38
2022-12-18T11:17:35.896Z,102326.84
2022-12-18T11:20:19.422Z,102331.63
2022-12-18T11:22:56.890Z,102318.81
2022-12-18T11:25:33.233Z,102326.91
2022-12-18T11:28:05.677Z,102327.91
2022-12-18T11:30:37.344Z,102332.22
2022-12-18T11:33:12.054Z,102324.94
2022-12-18T11:35:48.792Z,102323.59
2022-12-18T11:38:37.796Z,102321.13
2022-12-18T11:41:23.577Z,102312.84
2022-12-18T11:43:59.107Z,102315.47
2022-12-18T11:46:42.087Z,102305.94
2022-12-18T11:49:13.357Z,102313.69
2022-12-18T11:51:50.049Z,102305.91
2022-12-18T11:54:17.382Z,102305.84
2022-12-18T11:56:49.041Z,102305.81
2022-12-18T11:59:26.773Z,102308.78
2022-12-18T12:02:00.294Z,102308.69
2022-12-18T12:04:42.569Z,102302.72
2022-12-18T12:07:35.725Z,102296.66
2022-12-18T12:10:17.256Z,102301.38
2022-12-18T12:13:00.693Z,102308.16
2022-12-18T12:15:58.349Z,102309.41
2022-12-18T12:18:45.127Z,102307.66
2022-12-18T12:21:17.636Z,102299.88
2022-12-18T12:23:52.131Z,102301.63
2022-12-18T12:26:46.335Z,102296.81
2022-12-18T12:29:33.690Z,102303.38
2022-12-18T12:32:15.224Z,102302.09
2022-12-18T12:35:17.579Z,102306.53
2022-12-18T12:37:59.240Z,102301.75
2022-12-18T12:43:25.277Z,102304.59
2022-12-18T12:46:03.571Z,102306.53
2022-12-18T12:48:30.847Z,102317.19
2022-12-18T12:50:58.877Z,102324.59
2022-12-18T12:53:31.752Z,102329.19
2022-12-18T12:55:58.975Z,102343.69
2022-12-18T12:58:47.470Z,102341.78
2022-12-18T13:04:32.704Z,102343.41
2022-12-18T13:07:27.187Z,102343.22
2022-12-18T13:10:26.883Z,102345.97
2022-12-18T13:13:09.009Z,102350.75
2022-12-18T13:13:43.815Z,102341.25
2022-12-18T13:15:46.881Z,102356.28
2022-12-18T13:18:16.214Z,102359.78
2022-12-18T13:20:55.366Z,102356.91
2022-12-18T13:23:26.709Z,102352.38
2022-12-18T13:26:13.897Z,102357.53
2022-12-18T13:28:50.254Z,102360.66
2022-12-18T13:31:41.848Z,102365.72
2022-12-18T13:34:28.119Z,102378.50
2022-12-18T13:37:00.378Z,102373.16
2022-12-18T13:39:36.786Z,102377.13
2022-12-18T13:42:06.985Z,102372.78
2022-12-18T13:44:41.926Z,102366.72
2022-12-18T13:47:34.815Z,102378.94
2022-12-18T13:50:10.486Z,102378.50
2022-12-18T13:52:40.302Z,102382.81
2022-12-18T13:55:17.397Z,102386.84
2022-12-18T13:57:44.268Z,102387.56
2022-12-18T14:00:19.784Z,102387.56
2022-12-18T14:02:47.381Z,102391.97
2022-12-18T14:05:35.922Z,102394.94
2022-12-18T14:08:13.685Z,102397.94
2022-12-18T14:10:49.176Z,102401.75
2022-12-18T14:13:38.313Z,102407.72
2022-12-18T14:16:08.461Z,102399.69
2022-12-18T14:18:49.253Z,102405.50
2022-12-18T14:21:36.186Z,102398.47
2022-12-18T14:24:19.767Z,102406.03
2022-12-18T14:26:49.632Z,102405.59
2022-12-18T14:29:28.818Z,102411.25
2022-12-18T14:32:18.661Z,102410.31
2022-12-18T14:34:51.144Z,102414.03
2022-12-18T14:37:22.016Z,102412.16
2022-12-18T14:40:07.296Z,102419.53
2022-12-18T14:42:35.472Z,102431.84
2022-12-18T14:45:42.634Z,102444.25
2022-12-18T14:48:12.692Z,102430.75
2022-12-18T14:50:41.035Z,102435.34
2022-12-18T14:53:07.609Z,102446.16
2022-12-18T14:55:34.196Z,102456.16
2022-12-18T14:58:00.762Z,102455.06
2022-12-18T15:00:27.521Z,102464.03
2022-12-18T15:02:56.546Z,102460.69
2022-12-18T15:05:29.414Z,102467.00
2022-12-18T15:07:58.120Z,102466.34
2022-12-18T15:10:29.053Z,102476.16
2022-12-18T15:13:02.435Z,102476.44
2022-12-18T15:15:38.111Z,102492.78
2022-12-18T15:18:08.915Z,102488.84
2022-12-18T15:20:51.457Z,102494.75
2022-12-18T15:23:26.637Z,102500.47
2022-12-18T15:26:02.043Z,102500.91
2022-12-18T15:28:35.246Z,102496.00
2022-12-18T15:31:32.230Z,102512.44
2022-12-18T15:34:00.228Z,102513.63
2022-12-18T15:36:30.713Z,102518.22
2022-12-18T15:39:04.679Z,102522.78
2022-12-18T15:41:35.800Z,102527.38
2022-12-18T15:44:04.068Z,102527.59
2022-12-18T15:46:31.914Z,102526.88
2022-12-18T15:49:02.239Z,102531.41
2022-12-18T15:51:33.605Z,102542.09
2022-12-18T15:54:02.633Z,102543.28
2022-12-18T15:56:47.305Z,102546.88
2022-12-18T15:59:20.561Z,102546.09
2022-12-18T16:01:51.237Z,102545.31
2022-12-18T16:04:23.094Z,102553.28
2022-12-18T16:09:37.582Z,102560.50
2022-12-18T16:12:04.840Z,102557.00
2022-12-18T16:14:33.059Z,102564.22
2022-12-18T16:17:02.177Z,102569.50
2022-12-18T16:19:29.437Z,102565.13
2022-12-18T16:21:57.931Z,102563.50
2022-12-18T16:24:30.415Z,102574.97
2022-12-18T16:27:00.293Z,102577.66
2022-12-18T16:29:28.662Z,102577.69
2022-12-18T16:31:56.105Z,102581.22
2022-12-18T16:34:29.837Z,102579.50
2022-12-18T16:37:05.552Z,102583.94
2022-12-18T16:39:35.277Z,102588.34
2022-12-18T16:42:15.508Z,102585.72
2022-12-18T16:44:42.335Z,102590.13
2022-12-18T16:47:09.403Z,102590.13
2022-12-18T16:49:37.712Z,102591.91
2022-12-18T16:52:05.672Z,102605.97
2022-12-18T16:54:33.601Z,102609.50
2022-12-18T16:57:00.878Z,102597.19
2022-12-18T16:59:27.678Z,102592.78
2022-12-18T17:01:55.704Z,102605.09
2022-12-18T17:04:22.373Z,102601.56
2022-12-18T17:06:51.866Z,102599.78
2022-12-18T17:09:25.943Z,102602.41
2022-12-18T17:11:54.264Z,102594.50
2022-12-18T17:14:23.946Z,102587.47
2022-12-18T17:17:07.333Z,102593.63
2022-12-18T17:19:37.801Z,102586.59
2022-12-18T17:22:04.950Z,102586.56
2022-12-18T17:24:34.752Z,102585.69
2022-12-18T17:27:02.874Z,102580.41
2022-12-18T17:29:29.421Z,102588.31
2022-12-18T17:31:55.932Z,102589.16
2022-12-18T17:34:23.866Z,102588.22
2022-12-18T17:36:50.389Z,102593.44
2022-12-18T17:39:20.020Z,102597.81
2022-12-18T17:41:47.565Z,102596.91
2022-12-18T17:44:14.421Z,102602.16
2022-12-18T17:46:41.973Z,102611.75
2022-12-18T17:49:09.330Z,102609.97
2022-12-18T17:51:35.897Z,102611.72
2022-12-18T17:54:02.528Z,102608.97
2022-12-18T17:56:29.125Z,102601.91
2022-12-18T17:58:55.724Z,102604.59
2022-12-18T18:01:24.778Z,102602.81
2022-12-18T18:03:53.914Z,102601.94
2022-12-18T18:06:20.745Z,102601.06
2022-12-18T18:08:47.818Z,102595.75
2022-12-18T18:11:38.088Z,102606.19
2022-12-18T18:14:16.353Z,102608.81
2022-12-18T18:16:52.483Z,102613.13
2022-12-18T18:19:24.111Z,102617.47
2022-12-18T18:21:53.286Z,102606.94
2022-12-18T18:24:23.310Z,102613.00
2022-12-18T18:26:49.968Z,102614.56
2022-12-18T18:29:19.733Z,102615.41
2022-12-18T18:31:46.883Z,102608.31
2022-12-18T18:34:18.582Z,102618.84
2022-12-18T18:36:46.289Z,102627.63
2022-12-18T18:39:13.914Z,102633.81
2022-12-18T18:41:40.721Z,102633.72
2022-12-18T18:44:10.127Z,102635.56
2022-12-18T18:46:36.673Z,102640.88
2022-12-18T18:49:03.475Z,102636.47
2022-12-18T18:51:34.607Z,102639.13
2022-12-18T18:54:01.726Z,102639.13
2022-12-18T18:59:15.425Z,102640.84
2022-12-18T19:01:42.095Z,102656.59
2022-12-18T19:04:08.815Z,102653.88
2022-12-18T19:06:35.422Z,102647.72
2022-12-18T19:09:04.985Z,102652.06
2022-12-18T19:11:51.007Z,102654.69
2022-12-18T19:14:17.814Z,102658.25
2022-12-18T19:16:45.511Z,102662.66
2022-12-18T19:19:13.274Z,102656.47
2022-12-18T19:21:40.837Z,102666.09
2022-12-18T19:24:07.814Z,102668.72
2022-12-18T19:26:36.284Z,102672.25
2022-12-18T19:29:08.808Z,102674.84
2022-12-18T19:31:37.170Z,102676.59
2022-12-18T19:34:07.840Z,102680.94
2022-12-18T19:36:36.994Z,102684.41
2022-12-18T19:39:15.459Z,102681.75
2022-12-18T19:41:42.829Z,102686.06
2022-12-18T19:44:12.518Z,102686.88
2022-12-18T19:46:41.627Z,102686.78
2022-12-18T19:49:13.561Z,102688.41
2022-12-18T19:51:44.322Z,102691.84
2022-12-18T19:54:16.365Z,102696.19
2022-12-18T19:56:44.189Z,102705.75
2022-12-18T19:59:10.782Z,102705.72
2022-12-18T20:01:37.543Z,102705.66
2022-12-18T20:04:04.791Z,102701.91
2022-12-18T20:06:35.510Z,102692.97
2022-12-18T20:09:05.587Z,102695.50
2022-12-18T20:11:37.510Z,102706.72
2022-12-18T20:14:08.348Z,102708.44
2022-12-18T20:16:35.382Z,102710.91
2022-12-18T20:19:02.305Z,102706.44
2022-12-18T20:21:29.613Z,102716.91
2022-12-18T20:23:56.392Z,102725.59
2022-12-18T20:26:24.034Z,102726.47
2022-12-18T20:28:50.814Z,102733.50
2022-12-18T20:31:17.606Z,102735.28
2022-12-18T20:33:46.320Z,102727.38
2022-12-18T20:36:21.428Z,102730.81
2022-12-18T20:38:50.886Z,102731.63
2022-12-18T20:41:19.708Z,102733.41
2022-12-18T20:43:46.946Z,102729.91
2022-12-18T20:46:16.071Z,102727.31
2022-12-18T20:48:43.697Z,102737.78
2022-12-18T20:51:13.798Z,102739.59
2022-12-18T20:53:41.793Z,102745.66
2022-12-18T20:56:21.600Z,102741.28
2022-12-18T20:58:50.236Z,102736.94
2022-12-18T21:01:20.681Z,102741.31
2022-12-18T21:03:48.212Z,102747.41
2022-12-18T21:06:17.309Z,102750.00
2022-12-18T21:08:44.707Z,102747.38
2022-12-18T21:11:35.625Z,102750.91
2022-12-18T21:14:04.389Z,102753.47
2022-12-18T21:16:31.537Z,102749.06
2022-12-18T21:18:58.429Z,102750.84
2022-12-18T21:21:26.969Z,102749.03
2022-12-18T21:23:54.661Z,102747.22
2022-12-18T21:26:26.829Z,102749.63
2022-12-18T21:29:02.027Z,102754.84
2022-12-18T21:31:31.955Z,102756.59
2022-12-18T21:34:01.287Z,102744.41
2022-12-18T21:36:32.262Z,102747.06
2022-12-18T21:38:59.508Z,102740.91
2022-12-18T21:41:45.741Z,102740.88
2022-12-18T21:44:17.404Z,102738.19
2022-12-18T21:46:51.360Z,102735.44
2022-12-18T21:49:21.582Z,102731.00
2022-12-18T21:51:53.868Z,102725.81
2022-12-18T21:54:21.045Z,102729.19
2022-12-18T21:56:51.216Z,102737.00
2022-12-18T21:59:30.941Z,102735.22
2022-12-18T22:02:01.272Z,102735.09
2022-12-18T22:04:28.769Z,102738.41
2022-12-18T22:06:56.529Z,102734.75
2022-12-18T22:09:24.716Z,102732.16
2022-12-18T22:11:52.535Z,102729.41
2022-12-18T22:14:20.350Z,102733.63
2022-12-18T22:16:47.865Z,102731.72
2022-12-18T22:19:15.027Z,102728.09
2022-12-18T22:21:45.861Z,102736.88
2022-12-18T22:24:24.227Z,102733.44
2022-12-18T22:26:53.060Z,102726.31
2022-12-18T22:29:43.008Z,102735.88
2022-12-18T22:32:16.332Z,102741.13
2022-12-18T22:34:43.583Z,102735.84
2022-12-18T22:37:12.234Z,102727.91
2022-12-18T22:39:39.228Z,102733.91
2022-12-18T22:42:06.102Z,102736.53
2022-12-18T22:44:32.664Z,102741.78
2022-12-18T22:47:06.258Z,102740.88
2022-12-18T22:49:35.093Z,102745.06
2022-12-18T22:52:03.211Z,102745.81
2022-12-18T22:54:29.922Z,102751.78
2022-12-18T22:56:57.061Z,102753.53
2022-12-18T22:59:24.051Z,102753.56
2022-12-18T23:01:58.564Z,102754.44
2022-12-18T23:04:30.617Z,102755.31
2022-12-18T23:07:05.062Z,102759.75
2022-12-18T23:09:32.857Z,102751.88
2022-12-18T23:11:59.505Z,102753.38
2022-12-18T23:14:26.573Z,102754.94
2022-12-18T23:16:53.350Z,102750.44
2022-12-18T23:19:20.490Z,102752.03
2022-12-18T23:21:47.403Z,102758.09
2022-12-18T23:24:14.619Z,102760.59
2022-12-18T23:26:41.256Z,102761.38
2022-12-18T23:29:07.927Z,102765.72
2022-12-18T23:31:37.402Z,102763.91
2022-12-18T23:34:05.470Z,102752.44
2022-12-18T23:36:40.297Z,102754.94
2022-12-18T23:39:28.784Z,102753.25
2022-12-18T23:41:57.989Z,102756.75
2022-12-18T23:44:25.001Z,102758.53
2022-12-18T23:46:51.582Z,102756.66
2022-12-18T23:49:18.153Z,102759.28
2022-12-18T23:51:44.636Z,102755.72
2022-12-18T23:54:11.211Z,102763.53
2022-12-18T23:56:37.772Z,102768.72
2022-12-18T23:59:04.583Z,102769.53
